Time;durP1;ratioP1;P1;durP2;ratioP2;P2;SDS_P1;SDS_P2;PMS_P1;PMS_P2;Temp;Humidity;BMP_temperature;BMP_pressure;BME280_temperature;BME280_humidity;BME280_pressure;Samples;Min_cycle;Max_cycle;Signal;HPM_P1;HPM_P2
2022/10/07 00:01:06;;;;;;;7.43;4.20;;;;;;;9.59;89.50;102684.78;5068986;28;20570;-67
2022/10/07 00:03:32;;;;;;;7.15;3.15;;;;;;;9.57;89.55;102687.56;5069406;28;20082;-67
2022/10/07 00:06:07;;;;;;;8.20;4.30;;;;;;;9.53;89.63;102677.34;5069158;28;20059;-67
2022/10/07 00:08:37;;;;;;;11.00;4.60;;;;;;;9.52;89.66;102681.84;5069267;28;20037;-67
2022/10/07 00:11:28;;;;;;;12.88;5.65;;;;;;;9.52;89.75;102684.50;5069517;28;20519;-67
2022/10/07 00:13:59;;;;;;;9.73;3.60;;;;;;;9.49;89.87;102675.97;5069343;28;20475;-67
2022/10/07 00:16:30;;;;;;;12.70;3.88;;;;;;;9.40;90.19;102662.50;5069430;28;20496;-67
2022/10/07 00:18:59;;;;;;;9.23;4.40;;;;;;;9.44;90.41;102671.06;5069264;28;20059;-67
2022/10/07 00:21:26;;;;;;;12.60;4.07;;;;;;;9.43;90.47;102674.69;5069177;28;20123;-67
2022/10/07 00:23:52;;;;;;;10.00;3.63;;;;;;;9.40;90.61;102672.34;5069023;28;20039;-67
2022/10/07 00:26:23;;;;;;;17.92;4.30;;;;;;;9.39;90.87;102670.66;5069147;28;20127;-67
2022/10/07 00:28:49;;;;;;;17.70;5.68;;;;;;;9.34;90.63;102665.75;5069179;28;20104;-67
2022/10/07 00:31:17;;;;;;;7.13;4.25;;;;;;;9.30;90.72;102652.88;5068786;28;20021;-67
2022/10/07 00:33:43;;;;;;;8.50;3.97;;;;;;;9.34;90.96;102665.75;5068933;28;20027;-67
2022/10/07 00:36:14;;;;;;;8.68;4.15;;;;;;;9.30;91.00;102655.53;5069023;28;20399;-67
2022/10/07 00:38:40;;;;;;;13.43;4.55;;;;;;;9.25;91.41;102647.13;5068952;28;20029;-67
2022/10/07 00:41:07;;;;;;;10.20;4.72;;;;;;;9.26;91.31;102648.84;5069024;28;20111;-67
2022/10/07 00:43:33;;;;;;;19.40;4.95;;;;;;;9.25;91.43;102652.47;5069038;28;20081;-67
2022/10/07 00:46:05;;;;;;;12.35;3.97;;;;;;;9.21;91.61;102639.44;5068820;28;20036;-67
2022/10/07 00:48:31;;;;;;;13.77;3.75;;;;;;;9.20;91.58;102643.09;5068443;28;20047;-67
2022/10/07 00:50:59;;;;;;;9.82;4.30;;;;;;;9.17;91.67;102643.38;5068878;28;20024;-67
2022/10/07 00:53:28;;;;;;;11.02;3.55;;;;;;;9.14;91.66;102637.50;5068785;28;20029;-67
2022/10/07 00:55:56;;;;;;;15.25;3.80;;;;;;;9.06;92.14;102627.56;5068928;28;20025;-67
2022/10/07 00:58:23;;;;;;;12.90;4.65;;;;;;;9.10;91.93;102630.78;5068987;28;20536;-67
2022/10/07 01:00:49;;;;;;;11.98;5.43;;;;;;;9.07;91.94;102631.91;5068819;28;20036;-67
2022/10/07 01:03:15;;;;;;;10.02;4.53;;;;;;;9.06;92.07;102632.03;5068821;28;20097;-67
2022/10/07 01:05:40;;;;;;;13.30;4.88;;;;;;;9.03;92.18;102622.53;5068759;28;20115;-67
2022/10/07 01:08:06;;;;;;;10.98;4.95;;;;;;;9.02;92.36;102622.69;5068620;28;20024;-67
2022/10/07 01:10:48;;;;;;;15.38;4.57;;;;;;;9.02;92.61;102620.84;5068583;28;20052;-67
2022/10/07 01:13:25;;;;;;;12.38;5.10;;;;;;;8.99;92.82;102627.31;5068671;28;20028;-67
2022/10/07 01:16:43;;;;;;;10.50;4.70;;;;;;;8.98;92.79;102619.44;5068668;28;20032;-67
2022/10/07 01:19:44;;;;;;;13.10;5.65;;;;;;;8.95;92.73;102615.25;5055774;28;20040;-67
2022/10/07 01:22:23;;;;;;;8.07;4.03;;;;;;;8.93;93.02;102605.72;5070250;28;20791;-67
2022/10/07 01:25:04;;;;;;;9.85;3.50;;;;;;;8.91;92.99;102603.22;5072083;28;20495;-67
2022/10/07 01:27:32;;;;;;;13.75;4.63;;;;;;;8.91;93.09;102603.22;5072257;28;20023;-67
2022/10/07 01:30:04;;;;;;;11.88;4.68;;;;;;;8.89;93.26;102599.88;5072121;28;20032;-67
2022/10/07 01:32:55;;;;;;;12.02;3.88;;;;;;;8.87;93.54;102596.50;5072031;28;20143;-67
2022/10/07 01:35:27;;;;;;;12.50;3.95;;;;;;;8.82;93.45;102588.09;5071498;28;20044;-67
2022/10/07 01:38:00;;;;;;;10.50;4.45;;;;;;;8.82;93.83;102585.44;5071900;28;20020;-67
2022/10/07 01:40:35;;;;;;;12.27;5.15;;;;;;;8.83;93.66;102578.28;5072008;28;20021;-67
2022/10/07 01:43:01;;;;;;;12.15;3.65;;;;;;;8.78;93.98;102578.75;5071783;28;20029;-67
2022/10/07 01:45:29;;;;;;;14.77;3.97;;;;;;;8.75;94.19;102568.38;5071772;28;20047;-67
2022/10/07 01:47:55;;;;;;;8.27;4.20;;;;;;;8.71;94.22;102559.84;5071797;28;20357;-67
2022/10/07 01:50:25;;;;;;;13.30;4.28;;;;;;;8.68;94.49;102561.97;5071683;28;20033;-64
2022/10/07 01:53:03;;;;;;;13.40;3.90;;;;;;;8.68;94.86;102562.78;5071558;28;20032;-64
2022/10/07 01:55:55;;;;;;;17.65;4.82;;;;;;;8.66;95.03;102546.13;5071587;28;20028;-64
2022/10/07 01:58:49;;;;;;;12.43;5.05;;;;;;;8.67;94.76;102552.28;5071735;28;20094;-64
2022/10/07 02:01:22;;;;;;;13.45;4.40;;;;;;;8.64;94.77;102548.09;5063271;28;20040;-64
2022/10/07 02:04:12;;;;;;;12.65;3.83;;;;;;;8.64;95.40;102549.91;5071586;28;20425;-63
2022/10/07 02:06:42;;;;;;;15.90;5.03;;;;;;;8.62;95.59;102538.56;5071531;28;21035;-64
2022/10/07 02:09:37;;;;;;;12.73;4.88;;;;;;;8.60;95.34;102536.06;5071145;28;20044;-64
2022/10/07 02:12:22;;;;;;;14.30;5.65;;;;;;;8.58;95.99;102535.34;5068914;28;20036;-64
2022/10/07 02:14:52;;;;;;;10.07;4.13;;;;;;;8.59;95.45;102536.19;5069939;28;20028;-64
2022/10/07 02:17:20;;;;;;;11.35;5.13;;;;;;;8.61;95.52;102529.75;5071211;28;20036;-64
2022/10/07 02:19:52;;;;;;;10.65;4.70;;;;;;;8.58;95.92;102534.53;5070955;28;20020;-64
2022/10/07 02:22:21;;;;;;;9.05;3.72;;;;;;;8.58;95.79;102529.22;5071006;28;20472;-64
2022/10/07 02:24:50;;;;;;;11.70;5.40;;;;;;;8.58;95.92;102531.88;5070383;28;20021;-64
2022/10/07 02:27:23;;;;;;;10.40;4.72;;;;;;;8.58;96.02;102516.75;5070817;28;20028;-64
2022/10/07 02:29:56;;;;;;;16.65;4.85;;;;;;;8.58;95.88;102522.06;5071054;28;20017;-64
2022/10/07 02:32:25;;;;;;;10.93;3.80;;;;;;;8.55;95.85;102511.72;5070398;28;20037;-64
2022/10/07 02:34:56;;;;;;;17.67;5.43;;;;;;;8.54;96.00;102512.69;5070971;28;20380;-64
2022/10/07 02:37:26;;;;;;;13.30;4.50;;;;;;;8.57;95.82;102509.75;5069774;28;20037;-64
2022/10/07 02:39:53;;;;;;;11.82;4.53;;;;;;;8.58;95.68;102505.28;5070838;28;20115;-64
2022/10/07 02:42:40;;;;;;;11.65;3.60;;;;;;;8.51;95.94;102500.53;5070654;28;20020;-64
2022/10/07 02:45:09;;;;;;;12.57;4.07;;;;;;;8.54;95.74;102507.34;5070706;28;20032;-64
2022/10/07 02:47:41;;;;;;;11.38;3.80;;;;;;;8.53;96.09;102501.22;5069306;28;20532;-63
2022/10/07 02:50:11;;;;;;;11.02;3.85;;;;;;;8.50;96.01;102498.00;5070684;28;20032;-63
2022/10/07 02:52:39;;;;;;;10.07;4.40;;;;;;;8.45;96.10;102493.09;5070519;28;20373;-64
2022/10/07 02:55:14;;;;;;;9.73;3.88;;;;;;;8.43;96.34;102494.22;5070437;28;20739;-64
2022/10/07 02:57:45;;;;;;;9.57;4.57;;;;;;;8.41;96.24;102483.75;5070470;28;20059;-64
2022/10/07 03:00:12;;;;;;;10.20;3.40;;;;;;;8.40;96.20;102491.84;5070262;28;20028;-64
2022/10/07 03:02:47;;;;;;;8.73;4.22;;;;;;;8.39;96.62;102487.50;5070254;28;20024;-64
2022/10/07 03:05:18;;;;;;;15.73;5.05;;;;;;;8.37;96.55;102486.78;5070375;28;20021;-64
2022/10/07 03:07:45;;;;;;;11.88;4.50;;;;;;;8.34;96.49;102479.94;5070358;28;20028;-64
2022/10/07 03:10:11;;;;;;;14.90;5.25;;;;;;;8.31;96.55;102472.25;5069903;28;20049;-64
2022/10/07 03:12:36;;;;;;;10.85;3.35;;;;;;;8.34;96.73;102479.94;5069983;28;20101;-63
2022/10/07 03:15:02;;;;;;;17.08;4.10;;;;;;;8.34;97.02;102471.97;5070049;28;20119;-64
2022/10/07 03:17:27;;;;;;;12.07;4.10;;;;;;;8.33;97.07;102471.13;5070033;28;20661;-63
2022/10/07 03:19:52;;;;;;;11.95;4.60;;;;;;;8.32;97.44;102474.75;5069986;28;20130;-64
2022/10/07 03:22:18;;;;;;;12.32;5.10;;;;;;;8.31;97.39;102464.28;5069935;28;20025;-64
2022/10/07 03:24:43;;;;;;;17.20;5.63;;;;;;;8.31;97.17;102466.94;5069981;28;20040;-63
2022/10/07 03:27:08;;;;;;;10.93;4.85;;;;;;;8.32;97.24;102458.81;5069836;28;20039;-64
2022/10/07 03:29:34;;;;;;;8.45;3.45;;;;;;;8.32;97.05;102455.31;5069675;28;20028;-64
2022/10/07 03:32:00;;;;;;;10.00;3.88;;;;;;;8.32;96.92;102455.31;5069083;28;20024;-64
2022/10/07 03:34:26;;;;;;;15.00;4.47;;;;;;;8.30;97.12;102452.78;5069896;28;20043;-64
2022/10/07 03:36:53;;;;;;;9.50;4.85;;;;;;;8.28;97.30;102446.78;5069724;28;20036;-63
2022/10/07 03:39:18;;;;;;;14.57;5.82;;;;;;;8.29;97.11;102447.63;5069641;28;20429;-64
2022/10/07 03:41:44;;;;;;;10.30;3.47;;;;;;;8.26;97.37;102451.41;5069610;28;20035;-64
2022/10/07 03:44:09;;;;;;;15.45;4.65;;;;;;;8.26;97.19;102443.44;5069146;28;20119;-64
2022/10/07 03:46:35;;;;;;;10.15;3.83;;;;;;;8.25;97.10;102443.56;5069550;28;21005;-64
2022/10/07 03:49:02;;;;;;;13.45;5.18;;;;;;;8.26;97.15;102434.63;5069595;28;20083;-64
2022/10/07 03:51:27;;;;;;;14.25;4.70;;;;;;;8.25;97.25;102440.91;5069473;28;20495;-64
2022/10/07 03:53:56;;;;;;;10.32;4.47;;;;;;;8.24;97.12;102444.56;5069343;28;20089;-64
2022/10/07 03:56:21;;;;;;;12.15;3.70;;;;;;;8.23;97.11;102434.91;5069415;28;20094;-64
2022/10/07 03:58:47;;;;;;;16.55;5.35;;;;;;;8.21;97.18;102436.88;5069418;28;20036;-64
2022/10/07 04:01:13;;;;;;;15.65;5.13;;;;;;;8.19;97.32;102438.81;5069368;28;20115;-64
2022/10/07 04:03:39;;;;;;;14.73;5.18;;;;;;;8.12;97.40;102427.91;5069338;28;20032;-64
2022/10/07 04:06:05;;;;;;;19.27;4.72;;;;;;;8.17;97.24;102433.63;5069472;28;20037;-64
2022/10/07 04:08:31;;;;;;;8.90;3.63;;;;;;;8.13;97.24;102430.44;5069212;28;20054;-64
2022/10/07 04:10:57;;;;;;;9.38;3.78;;;;;;;8.14;97.46;102433.94;5069225;28;20093;-64
2022/10/07 04:13:23;;;;;;;17.05;4.80;;;;;;;8.16;97.24;102439.13;5069216;28;20173;-64
2022/10/07 04:15:48;;;;;;;12.13;5.00;;;;;;;8.11;97.31;102426.25;5069254;28;20493;-64
2022/10/07 04:18:14;;;;;;;10.45;4.32;;;;;;;8.11;97.49;102434.22;5069312;28;20051;-64
2022/10/07 04:20:39;;;;;;;13.75;3.63;;;;;;;8.10;97.37;102425.41;5069238;28;20519;-64
2022/10/07 04:23:05;;;;;;;8.93;4.35;;;;;;;8.09;97.53;102426.38;5067721;28;20074;-64
2022/10/07 04:25:34;;;;;;;14.23;4.45;;;;;;;7.97;97.56;102410.75;5069017;28;20399;-64
2022/10/07 04:28:02;;;;;;;10.32;3.97;;;;;;;8.06;97.67;102428.50;5069110;28;20029;-63
2022/10/07 04:30:32;;;;;;;9.65;3.70;;;;;;;8.02;97.85;102421.78;5068765;28;20257;-64
2022/10/07 04:32:59;;;;;;;12.52;4.72;;;;;;;8.06;97.90;102431.16;5068676;28;20021;-64
2022/10/07 04:35:24;;;;;;;8.75;3.80;;;;;;;8.03;97.80;102428.78;5069045;28;20041;-64
2022/10/07 04:37:51;;;;;;;12.02;4.03;;;;;;;7.96;97.84;102414.38;5069063;28;20537;-64
2022/10/07 04:40:18;;;;;;;10.65;4.50;;;;;;;7.97;98.18;102422.22;5068982;28;20036;-64
2022/10/07 04:45:27;;;;;;;11.15;3.95;;;;;;;7.93;98.27;102417.31;5069266;28;20146;-65
2022/10/07 04:47:53;;;;;;;22.70;6.13;;;;;;;7.87;98.28;102419.53;5069045;28;20461;-64
2022/10/07 04:50:18;;;;;;;12.50;3.70;;;;;;;7.92;98.31;102428.94;5068818;28;20086;-64
2022/10/07 04:52:43;;;;;;;10.35;3.40;;;;;;;7.92;98.49;102423.63;5068582;28;20029;-64
2022/10/07 04:55:11;;;;;;;15.18;4.53;;;;;;;7.92;98.58;102420.97;5068857;28;20028;-64
2022/10/07 04:57:37;;;;;;;7.65;3.33;;;;;;;7.90;98.88;102421.09;5071600;28;20438;-64
2022/10/07 05:00:03;;;;;;;16.73;6.82;;;;;;;7.88;98.89;102421.22;5072709;28;20029;-64
2022/10/07 05:02:29;;;;;;;10.32;3.22;;;;;;;7.87;98.47;102422.19;5072597;28;20032;-63
2022/10/07 05:04:54;;;;;;;14.30;5.18;;;;;;;7.87;98.60;102414.22;5072498;28;20097;-64
2022/10/07 05:07:19;;;;;;;9.45;3.97;;;;;;;7.88;98.82;102413.25;5072387;28;20041;-64
2022/10/07 05:09:45;;;;;;;9.70;3.78;;;;;;;7.85;98.63;102412.69;5072256;28;20051;-64
2022/10/07 05:12:10;;;;;;;10.02;3.63;;;;;;;7.85;98.37;102410.03;5072264;28;20032;-63
2022/10/07 05:14:35;;;;;;;11.50;5.05;;;;;;;7.84;98.43;102411.03;5072348;28;20031;-64
2022/10/07 05:17:01;;;;;;;8.35;3.58;;;;;;;7.81;98.38;102404.19;5072387;28;20123;-64
2022/10/07 05:19:26;;;;;;;15.73;4.55;;;;;;;7.79;98.45;102405.28;5071581;28;20479;-63
2022/10/07 05:21:51;;;;;;;13.93;4.43;;;;;;;7.77;98.57;102396.63;5072173;28;20032;-64
2022/10/07 05:24:17;;;;;;;13.90;4.10;;;;;;;7.76;98.66;102397.63;5072310;28;20069;-64
2022/10/07 05:26:42;;;;;;;11.98;3.50;;;;;;;7.73;98.75;102396.06;5072293;28;20032;-64
2022/10/07 05:29:08;;;;;;;10.38;3.25;;;;;;;7.73;98.62;102396.06;5072238;28;20024;-64
2022/10/07 05:31:33;;;;;;;7.93;2.88;;;;;;;7.68;98.55;102391.19;5071818;28;20047;-63
2022/10/07 05:33:59;;;;;;;8.00;3.33;;;;;;;7.66;98.64;102386.97;5072015;28;20064;-64
2022/10/07 05:36:25;;;;;;;20.02;6.00;;;;;;;7.63;98.76;102387.28;5072189;28;20039;-64
2022/10/07 05:38:56;;;;;;;11.02;4.05;;;;;;;7.60;99.02;102388.38;5072158;28;20056;-64
2022/10/07 05:41:22;;;;;;;20.85;4.20;;;;;;;7.60;98.99;102376.94;5071966;28;20112;-64
2022/10/07 05:43:48;;;;;;;15.02;3.40;;;;;;;7.58;99.08;102390.34;5071875;28;20082;-64
2022/10/07 05:46:15;;;;;;;14.77;4.03;;;;;;;7.56;99.16;102384.31;5071898;28;20032;-64
2022/10/07 05:48:44;;;;;;;12.80;3.03;;;;;;;7.56;99.41;102391.44;5071770;28;20029;-64
2022/10/07 05:51:10;;;;;;;11.88;3.42;;;;;;;7.57;99.01;102390.47;5071620;28;20052;-66
2022/10/07 05:53:39;;;;;;;12.27;4.03;;;;;;;7.56;99.77;102388.78;5071541;28;20064;-66
2022/10/07 05:56:06;;;;;;;12.02;2.85;;;;;;;7.55;99.61;102384.47;5071513;28;20040;-67
2022/10/07 05:58:31;;;;;;;9.63;3.28;;;;;;;7.56;99.41;102386.97;5071571;28;20048;-67
2022/10/07 06:00:58;;;;;;;9.45;3.13;;;;;;;7.54;99.39;102378.31;5071403;28;20086;-67
2022/10/07 06:03:25;;;;;;;5.30;2.70;;;;;;;7.54;99.73;102382.78;5071493;28;20107;-67
2022/10/07 06:05:51;;;;;;;11.18;3.70;;;;;;;7.54;99.73;102377.47;5071441;28;20036;-67
2022/10/07 06:08:18;;;;;;;13.45;4.63;;;;;;;7.53;99.87;102370.50;5070688;28;20035;-67
2022/10/07 06:13:28;;;;;;;10.30;3.75;;;;;;;7.56;100.00;102368.38;5070860;28;20248;-67
2022/10/07 06:16:00;;;;;;;11.93;4.20;;;;;;;7.60;100.00;102371.63;5070923;28;20029;-67
2022/10/07 06:18:25;;;;;;;8.60;3.95;;;;;;;7.61;99.86;102360.84;5071073;28;20024;-67
2022/10/07 06:20:55;;;;;;;8.38;3.05;;;;;;;7.64;99.92;102363.22;5071105;28;20909;-67
2022/10/07 06:23:20;;;;;;;18.55;4.90;;;;;;;7.67;100.00;102362.09;5071227;28;20075;-67
2022/10/07 06:26:03;;;;;;;11.88;3.90;;;;;;;7.68;100.00;102369.94;5069774;28;20897;-67
2022/10/07 06:28:37;;;;;;;12.10;3.75;;;;;;;7.73;100.00;102368.66;5071086;28;20031;-67
2022/10/07 06:31:10;;;;;;;15.32;3.60;;;;;;;7.74;100.00;102368.53;5070931;28;20024;-67
2022/10/07 06:33:36;;;;;;;8.73;3.65;;;;;;;7.76;100.00;102361.25;5070783;28;20102;-67
2022/10/07 06:36:03;;;;;;;18.65;4.15;;;;;;;7.82;100.00;102359.84;5070758;28;20495;-67
2022/10/07 06:38:29;;;;;;;8.00;3.13;;;;;;;7.84;100.00;102357.91;5070773;28;20597;-67
2022/10/07 06:40:58;;;;;;;9.05;3.78;;;;;;;7.90;100.00;102362.66;5070546;28;20167;-64
2022/10/07 06:43:25;;;;;;;10.85;3.13;;;;;;;7.92;100.00;102360.69;5070708;28;20032;-67
2022/10/07 06:45:51;;;;;;;9.10;3.05;;;;;;;7.92;100.00;102358.03;5070556;28;20024;-70
2022/10/07 06:48:17;;;;;;;7.65;3.17;;;;;;;7.98;100.00;102359.28;5069191;28;20086;-67
2022/10/07 06:50:50;;;;;;;9.15;3.08;;;;;;;8.05;100.00;102365.72;5069304;28;20035;-67
2022/10/07 06:53:16;;;;;;;12.88;3.35;;;;;;;8.10;100.00;102372.28;5070212;28;20032;-67
2022/10/07 06:55:41;;;;;;;10.00;3.42;;;;;;;8.12;100.00;102357.03;5070399;28;20032;-67
2022/10/07 06:58:06;;;;;;;15.93;3.63;;;;;;;8.20;100.00;102353.66;5070312;28;20105;-67
2022/10/07 07:00:32;;;;;;;7.53;3.25;;;;;;;8.26;100.00;102361.03;5070366;28;20099;-67
2022/10/07 07:03:00;;;;;;;8.63;2.85;;;;;;;8.33;100.00;102359.50;5068843;28;20035;-67
2022/10/07 07:05:31;;;;;;;12.45;4.18;;;;;;;8.40;100.00;102369.56;5070172;28;21035;-66
2022/10/07 07:07:57;;;;;;;9.15;3.05;;;;;;;8.47;100.00;102365.34;5069940;28;20051;-67
2022/10/07 07:10:23;;;;;;;15.25;3.78;;;;;;;8.55;100.00;102368.13;5069684;28;20044;-70
2022/10/07 07:12:51;;;;;;;6.78;2.72;;;;;;;8.60;100.00;102354.38;5070027;28;20021;-66
2022/10/07 07:15:16;;;;;;;8.85;4.00;;;;;;;8.66;100.00;102370.59;5068734;28;20029;-66
2022/10/07 07:17:42;;;;;;;7.90;2.90;;;;;;;8.72;99.64;102366.50;5070248;28;20102;-67
2022/10/07 07:20:08;;;;;;;12.85;3.25;;;;;;;8.78;99.29;102368.59;5069092;28;20036;-67
2022/10/07 07:22:33;;;;;;;6.95;2.45;;;;;;;8.85;99.13;102374.13;5069603;28;20674;-67
2022/10/07 07:24:59;;;;;;;10.27;3.28;;;;;;;8.93;99.23;102364.44;5069613;28;20064;-66
2022/10/07 07:27:24;;;;;;;10.82;3.10;;;;;;;9.02;99.21;102356.56;5069743;28;20028;-67
2022/10/07 07:29:49;;;;;;;9.90;4.28;;;;;;;9.07;99.09;102365.75;5069715;28;20373;-66
2022/10/07 07:32:15;;;;;;;11.75;4.10;;;;;;;9.18;99.08;102368.22;5062797;28;20033;-66
2022/10/07 07:34:40;;;;;;;23.40;5.40;;;;;;;9.25;98.10;102368.47;5065369;28;20033;-67
2022/10/07 07:37:05;;;;;;;11.35;3.13;;;;;;;9.32;97.91;102371.34;5065415;28;20036;-67
2022/10/07 07:39:31;;;;;;;10.43;3.45;;;;;;;9.50;97.56;102371.34;5063519;28;20471;-69
2022/10/07 07:41:57;;;;;;;7.55;2.90;;;;;;;9.66;97.28;102363.50;5064804;28;20446;-69
2022/10/07 07:44:22;;;;;;;8.50;3.33;;;;;;;9.76;96.23;102371.41;5064690;28;20056;-69
2022/10/07 07:46:50;;;;;;;8.45;2.97;;;;;;;9.79;95.99;102365.78;5064864;28;20040;-67
2022/10/07 07:49:17;;;;;;;7.95;3.42;;;;;;;9.90;96.00;102357.53;5065109;28;20032;-66
2022/10/07 07:51:43;;;;;;;10.05;2.95;;;;;;;10.01;95.63;102357.31;5064633;28;20036;-67
2022/10/07 07:54:10;;;;;;;11.60;3.80;;;;;;;10.11;95.03;102359.84;5064716;28;20025;-67
2022/10/07 07:56:36;;;;;;;13.00;6.60;;;;;;;10.22;95.41;102366.78;5065345;28;20036;-66
2022/10/07 07:59:03;;;;;;;7.05;3.15;;;;;;;10.33;95.50;102355.03;5066889;28;20028;-67
2022/10/07 08:01:31;;;;;;;17.27;3.65;;;;;;;10.43;94.45;102361.09;5068779;28;20094;-67
2022/10/07 08:03:57;;;;;;;10.15;3.13;;;;;;;10.47;94.04;102357.94;5068854;28;20396;-67
2022/10/07 08:06:23;;;;;;;12.35;3.13;;;;;;;10.58;93.61;102354.16;5069104;28;20036;-67
2022/10/07 08:08:50;;;;;;;8.20;2.47;;;;;;;10.67;93.15;102355.03;5069084;28;20029;-67
2022/10/07 08:11:19;;;;;;;14.30;3.00;;;;;;;10.75;93.68;102349.72;5066190;28;20044;-68
2022/10/07 08:13:45;;;;;;;9.48;2.42;;;;;;;10.89;92.85;102345.59;5064079;28;20098;-68
2022/10/07 08:16:18;;;;;;;11.15;3.88;;;;;;;11.00;92.19;102353.31;5064668;28;20035;-68
2022/10/07 08:18:46;;;;;;;8.00;2.70;;;;;;;11.14;92.91;102349.19;5065177;28;20021;-68
2022/10/07 08:21:12;;;;;;;7.47;3.10;;;;;;;11.25;92.92;102348.88;5064732;28;20021;-68
2022/10/07 08:23:39;;;;;;;9.15;3.42;;;;;;;11.33;90.68;102340.88;5064831;28;20021;-68
2022/10/07 08:26:06;;;;;;;10.75;3.22;;;;;;;11.39;90.51;102342.03;5064563;28;20104;-68
2022/10/07 08:28:32;;;;;;;12.30;3.65;;;;;;;11.49;89.46;102345.41;5066795;28;20024;-67
2022/10/07 08:31:10;;;;;;;13.02;5.35;;;;;;;11.60;90.65;102344.22;5070608;28;20039;-67
2022/10/07 08:33:41;;;;;;;8.80;3.05;;;;;;;11.72;89.24;102340.22;5072841;28;20020;-67
2022/10/07 08:36:10;;;;;;;15.00;3.22;;;;;;;11.85;89.89;102339.72;5072924;28;20119;-67
2022/10/07 08:38:37;;;;;;;10.77;2.90;;;;;;;11.94;89.07;102341.41;5072970;28;20070;-67
2022/10/07 08:41:06;;;;;;;14.02;3.53;;;;;;;12.04;90.35;102335.88;5073012;28;20036;-67
2022/10/07 08:43:32;;;;;;;13.43;3.97;;;;;;;12.24;90.04;102337.19;5072829;28;20077;-67
2022/10/07 08:45:59;;;;;;;14.82;4.07;;;;;;;12.43;87.05;102337.81;5072594;28;20047;-67
2022/10/07 08:48:32;;;;;;;11.13;2.90;;;;;;;12.49;85.49;102327.22;5072892;28;20527;-67
2022/10/07 08:51:08;;;;;;;8.00;2.85;;;;;;;12.56;87.75;102322.03;5072478;28;20043;-67
2022/10/07 08:53:35;;;;;;;11.95;2.97;;;;;;;12.59;85.62;102324.34;5072134;28;20104;-67
2022/10/07 08:56:13;;;;;;;8.38;2.45;;;;;;;12.68;85.32;102306.41;5072328;28;20035;-67
2022/10/07 08:59:14;;;;;;;6.80;2.40;;;;;;;12.93;84.17;102310.63;5072534;28;20035;-67
2022/10/07 09:01:42;;;;;;;11.50;2.60;;;;;;;13.07;82.98;102317.09;5072466;28;20021;-67
2022/10/07 09:04:32;;;;;;;9.88;2.22;;;;;;;13.19;83.95;102308.66;5072339;28;20098;-67
2022/10/07 09:07:09;;;;;;;15.20;4.47;;;;;;;13.26;82.38;102309.59;5072429;28;20391;-67
2022/10/07 09:09:39;;;;;;;6.88;3.60;;;;;;;13.29;81.58;102296.72;5072171;28;20052;-65
2022/10/07 09:12:17;;;;;;;14.30;3.15;;;;;;;13.40;81.65;102311.53;5072321;28;20409;-64
2022/10/07 09:14:47;;;;;;;8.50;2.58;;;;;;;13.37;80.86;102306.53;5072258;28;20032;-65
2022/10/07 09:17:38;;;;;;;6.22;2.28;;;;;;;13.34;81.47;102302.38;5072227;28;20056;-65
2022/10/07 09:20:17;;;;;;;11.87;3.80;;;;;;;13.36;81.33;102296.81;5066945;28;20079;-65
2022/10/07 09:22:48;;;;;;;8.68;2.22;;;;;;;13.45;81.48;102298.41;5072017;28;20382;-65
2022/10/07 09:25:24;;;;;;;13.05;3.30;;;;;;;13.55;80.55;102293.66;5072176;28;20687;-65
2022/10/07 09:27:51;;;;;;;10.52;3.20;;;;;;;13.70;81.67;102290.16;5072113;28;20040;-65
2022/10/07 09:30:17;;;;;;;9.18;2.17;;;;;;;13.66;79.03;102283.50;5072196;28;20451;-65
2022/10/07 09:32:45;;;;;;;16.58;3.38;;;;;;;13.77;78.78;102289.25;5071959;28;20360;-65
2022/10/07 09:35:13;;;;;;;12.82;2.85;;;;;;;13.84;79.20;102284.00;5071916;28;20071;-65
2022/10/07 09:37:53;;;;;;;8.95;2.38;;;;;;;13.96;80.27;102285.22;5071640;28;20070;-65
2022/10/07 09:40:21;;;;;;;8.07;2.80;;;;;;;14.12;80.87;102286.03;5071623;28;20542;-65
2022/10/07 09:42:48;;;;;;;8.68;2.70;;;;;;;14.15;78.35;102275.78;5070508;28;20024;-65
2022/10/07 09:45:23;;;;;;;9.57;2.33;;;;;;;14.14;78.98;102273.28;5071773;28;20150;-65
2022/10/07 09:47:51;;;;;;;11.45;3.58;;;;;;;14.02;77.55;102273.75;5071450;28;20064;-65
2022/10/07 09:50:36;;;;;;;6.28;3.25;;;;;;;14.11;79.32;102270.97;5071290;28;20028;-65
2022/10/07 09:53:02;;;;;;;9.13;2.60;;;;;;;14.25;78.85;102267.44;5071283;28;20031;-65
2022/10/07 09:55:31;;;;;;;10.65;3.13;;;;;;;14.35;78.99;102267.16;5071085;28;20036;-65
2022/10/07 09:58:01;;;;;;;11.38;3.65;;;;;;;14.34;76.42;102260.13;5071548;28;20081;-65
2022/10/07 10:00:28;;;;;;;17.20;2.47;;;;;;;14.29;76.93;102260.69;5071486;28;20036;-65
2022/10/07 10:03:04;;;;;;;13.70;2.45;;;;;;;14.42;79.67;102250.13;5071567;28;20025;-65
2022/10/07 10:05:52;;;;;;;9.48;2.65;;;;;;;14.57;78.20;102246.63;5071195;28;20103;-65
2022/10/07 10:08:27;;;;;;;13.98;3.38;;;;;;;14.76;77.07;102246.00;5071126;28;20032;-65
2022/10/07 10:10:58;;;;;;;14.55;2.72;;;;;;;14.87;75.89;102247.34;5071064;28;20046;-65
2022/10/07 10:13:37;;;;;;;7.95;2.40;;;;;;;14.97;76.12;102239.81;5070833;28;20148;-65
2022/10/07 10:16:06;;;;;;;7.40;2.47;;;;;;;15.06;74.81;102237.81;5070680;28;20028;-65
2022/10/07 10:18:57;;;;;;;9.70;2.78;;;;;;;15.13;74.95;102244.09;5070895;28;20442;-64
2022/10/07 10:21:34;;;;;;;13.82;3.05;;;;;;;15.17;73.57;102229.25;5070606;28;20020;-64
2022/10/07 10:24:05;;;;;;;14.73;2.80;;;;;;;15.21;73.17;102233.22;5070482;28;20028;-65
2022/10/07 10:26:46;;;;;;;9.40;2.57;;;;;;;15.28;74.89;102228.72;5070608;28;20016;-65
2022/10/07 10:29:27;;;;;;;10.90;2.70;;;;;;;15.33;71.44;102223.59;5070484;28;20652;-65
2022/10/07 10:32:01;;;;;;;6.72;1.90;;;;;;;15.37;71.29;102212.47;5070799;28;20043;-65
2022/10/07 10:34:34;;;;;;;4.22;1.65;;;;;;;15.34;71.14;102211.81;5070368;28;21012;-65
2022/10/07 10:37:13;;;;;;;5.50;1.58;;;;;;;15.34;70.33;102209.13;5070718;28;20032;-67
2022/10/07 10:40:06;;;;;;;6.68;2.28;;;;;;;15.47;72.40;102202.19;5070185;28;20032;-67
2022/10/07 10:42:47;;;;;;;9.23;2.05;;;;;;;15.53;68.72;102196.84;5070125;28;20073;-67
2022/10/07 10:45:31;;;;;;;11.20;2.10;;;;;;;15.57;69.44;102191.94;5070106;28;20056;-68
2022/10/07 10:48:24;;;;;;;10.02;3.10;;;;;;;15.76;70.66;102196.63;5070351;28;20304;-67
2022/10/07 10:50:56;;;;;;;7.97;2.75;;;;;;;15.84;68.30;102184.03;5070391;28;20047;-67
2022/10/07 10:53:21;;;;;;;;;;;;;;;15.86;68.60;102182.81;5070701;28;20111;-67
2022/10/07 10:56:17;;;;;;;10.97;2.80;;;;;;;15.86;67.93;102180.13;5070347;28;20019;-67
2022/10/07 10:59:00;;;;;;;11.25;3.25;;;;;;;15.92;68.96;102179.31;5065071;28;20074;-69
2022/10/07 11:01:43;;;;;;;11.00;2.97;;;;;;;15.91;67.76;102174.97;5064932;28;20020;-69
2022/10/07 11:04:20;;;;;;;10.98;1.60;;;;;;;15.87;66.74;102171.00;5065286;28;20103;-69
2022/10/07 11:06:51;;;;;;;21.15;2.90;;;;;;;15.85;64.92;102166.84;5065580;28;20107;-69
2022/10/07 11:09:32;;;;;;;9.37;2.07;;;;;;;15.87;67.58;102167.50;5065566;28;20111;-68
2022/10/07 11:12:02;;;;;;;5.15;2.38;;;;;;;15.85;66.30;102169.56;5065656;28;20107;-67
2022/10/07 11:14:29;;;;;;;9.15;3.10;;;;;;;15.88;66.43;102155.72;5065591;28;20028;-68
2022/10/07 11:17:02;;;;;;;11.02;3.47;;;;;;;15.93;65.80;102162.16;5065244;28;20026;-67
2022/10/07 11:19:36;;;;;;;9.95;1.95;;;;;;;15.98;65.93;102164.22;5065086;28;20043;-67
2022/10/07 11:22:02;;;;;;;6.43;2.15;;;;;;;16.06;64.75;102153.31;5065922;28;20158;-67
2022/10/07 11:24:30;;;;;;;11.50;3.55;;;;;;;16.14;66.65;102139.69;5065382;28;20371;-67
2022/10/07 11:27:16;;;;;;;4.88;1.30;;;;;;;16.20;66.47;102136.16;5064761;28;20031;-67
2022/10/07 11:29:51;;;;;;;5.45;2.42;;;;;;;16.32;64.79;102138.25;5065545;28;20035;-68
2022/10/07 11:32:27;;;;;;;7.35;2.13;;;;;;;16.34;64.41;102120.03;5065232;28;20024;-67
2022/10/07 11:35:06;;;;;;;8.07;3.17;;;;;;;16.24;64.07;102117.75;5065052;28;20082;-68
2022/10/07 11:37:45;;;;;;;18.73;3.50;;;;;;;16.22;64.62;102111.75;5064282;28;20044;-67
2022/10/07 11:40:11;;;;;;;8.80;2.50;;;;;;;16.31;64.45;102104.31;5063962;28;20494;-69
2022/10/07 11:42:41;;;;;;;13.27;3.05;;;;;;;16.34;63.41;102098.50;5066545;28;20020;-65
2022/10/07 11:45:21;;;;;;;6.18;2.30;;;;;;;16.41;63.54;102107.44;5064729;28;20115;-67